sensor_id;sensor_type;location;lat;lon;timestamp;P1;durP1;ratioP1;P2;durP2;ratioP2
54699;SDS011;40599;53.132;6.090;2023-08-24T00:01:48;6.88;;;4.07;;
54699;SDS011;40599;53.132;6.090;2023-08-24T00:04:15;9.93;;;6.22;;
54699;SDS011;40599;53.132;6.090;2023-08-24T00:06:41;10.85;;;7.80;;
54699;SDS011;40599;53.132;6.090;2023-08-24T00:09:07;13.43;;;7.60;;
54699;SDS011;40599;53.132;6.090;2023-08-24T00:11:33;10.10;;;6.03;;
54699;SDS011;40599;53.132;6.090;2023-08-24T00:13:59;12.02;;;6.13;;
54699;SDS011;40599;53.132;6.090;2023-08-24T00:16:32;9.20;;;5.47;;
54699;SDS011;40599;53.132;6.090;2023-08-24T00:18:58;9.30;;;4.87;;
54699;SDS011;40599;53.132;6.090;2023-08-24T00:21:24;8.95;;;6.13;;
54699;SDS011;40599;53.132;6.090;2023-08-24T00:23:50;12.25;;;6.25;;
54699;SDS011;40599;53.132;6.090;2023-08-24T00:26:17;7.83;;;5.77;;
54699;SDS011;40599;53.132;6.090;2023-08-24T00:28:44;9.45;;;4.95;;
54699;SDS011;40599;53.132;6.090;2023-08-24T00:31:10;14.05;;;6.82;;
54699;SDS011;40599;53.132;6.090;2023-08-24T00:33:37;9.13;;;5.35;;
54699;SDS011;40599;53.132;6.090;2023-08-24T00:36:04;15.85;;;7.60;;
54699;SDS011;40599;53.132;6.090;2023-08-24T00:38:34;12.90;;;7.40;;
54699;SDS011;40599;53.132;6.090;2023-08-24T00:41:01;14.20;;;7.82;;
54699;SDS011;40599;53.132;6.090;2023-08-24T00:43:27;14.52;;;7.53;;
54699;SDS011;40599;53.132;6.090;2023-08-24T00:45:55;13.70;;;7.80;;
54699;SDS011;40599;53.132;6.090;2023-08-24T00:48:22;12.60;;;7.80;;
54699;SDS011;40599;53.132;6.090;2023-08-24T00:50:54;15.43;;;6.87;;
54699;SDS011;40599;53.132;6.090;2023-08-24T00:53:20;13.47;;;6.33;;
54699;SDS011;40599;53.132;6.090;2023-08-24T00:55:48;12.47;;;7.50;;
54699;SDS011;40599;53.132;6.090;2023-08-24T00:58:14;9.32;;;6.00;;
54699;SDS011;40599;53.132;6.090;2023-08-24T01:00:40;10.55;;;6.25;;
54699;SDS011;40599;53.132;6.090;2023-08-24T01:03:07;7.90;;;5.30;;
54699;SDS011;40599;53.132;6.090;2023-08-24T01:05:33;11.02;;;6.38;;
54699;SDS011;40599;53.132;6.090;2023-08-24T01:07:59;9.05;;;6.38;;
54699;SDS011;40599;53.132;6.090;2023-08-24T01:10:26;10.35;;;6.82;;
54699;SDS011;40599;53.132;6.090;2023-08-24T01:18:16;9.00;;;5.17;;
54699;SDS011;40599;53.132;6.090;2023-08-24T01:20:45;6.73;;;5.37;;
54699;SDS011;40599;53.132;6.090;2023-08-24T01:26:19;12.50;;;7.33;;
54699;SDS011;40599;53.132;6.090;2023-08-24T01:28:44;12.13;;;7.17;;
54699;SDS011;40599;53.132;6.090;2023-08-24T01:33:37;19.33;;;11.00;;
54699;SDS011;40599;53.132;6.090;2023-08-24T01:36:05;14.40;;;9.20;;
54699;SDS011;40599;53.132;6.090;2023-08-24T01:38:32;14.10;;;8.65;;
54699;SDS011;40599;53.132;6.090;2023-08-24T01:43:33;21.17;;;8.45;;
54699;SDS011;40599;53.132;6.090;2023-08-24T01:46:04;12.27;;;8.02;;
54699;SDS011;40599;53.132;6.090;2023-08-24T01:48:31;13.87;;;8.57;;
54699;SDS011;40599;53.132;6.090;2023-08-24T01:50:57;19.38;;;9.82;;
54699;SDS011;40599;53.132;6.090;2023-08-24T01:53:24;18.23;;;9.93;;
54699;SDS011;40599;53.132;6.090;2023-08-24T01:55:51;12.70;;;8.33;;
54699;SDS011;40599;53.132;6.090;2023-08-24T01:58:18;14.67;;;8.50;;
54699;SDS011;40599;53.132;6.090;2023-08-24T02:00:45;18.40;;;8.88;;
54699;SDS011;40599;53.132;6.090;2023-08-24T02:03:11;17.65;;;9.85;;
54699;SDS011;40599;53.132;6.090;2023-08-24T02:05:37;23.10;;;9.30;;
54699;SDS011;40599;53.132;6.090;2023-08-24T02:08:03;14.20;;;9.68;;
54699;SDS011;40599;53.132;6.090;2023-08-24T02:10:30;12.80;;;9.18;;
54699;SDS011;40599;53.132;6.090;2023-08-24T02:13:11;20.08;;;10.35;;
54699;SDS011;40599;53.132;6.090;2023-08-24T02:15:38;15.60;;;9.50;;
54699;SDS011;40599;53.132;6.090;2023-08-24T02:18:07;24.00;;;10.73;;
54699;SDS011;40599;53.132;6.090;2023-08-24T02:20:39;14.25;;;9.10;;
54699;SDS011;40599;53.132;6.090;2023-08-24T02:23:06;19.07;;;11.13;;
54699;SDS011;40599;53.132;6.090;2023-08-24T02:25:32;15.40;;;10.63;;
54699;SDS011;40599;53.132;6.090;2023-08-24T02:27:58;17.38;;;9.80;;
54699;SDS011;40599;53.132;6.090;2023-08-24T02:30:25;19.40;;;10.38;;
54699;SDS011;40599;53.132;6.090;2023-08-24T02:32:51;17.80;;;10.50;;
54699;SDS011;40599;53.132;6.090;2023-08-24T02:35:17;15.77;;;9.48;;
54699;SDS011;40599;53.132;6.090;2023-08-24T02:37:43;21.55;;;11.02;;
54699;SDS011;40599;53.132;6.090;2023-08-24T02:40:10;15.10;;;9.30;;
54699;SDS011;40599;53.132;6.090;2023-08-24T02:42:36;17.13;;;9.77;;
54699;SDS011;40599;53.132;6.090;2023-08-24T02:45:02;14.10;;;9.00;;
54699;SDS011;40599;53.132;6.090;2023-08-24T02:47:29;19.63;;;11.98;;
54699;SDS011;40599;53.132;6.090;2023-08-24T02:49:55;17.30;;;10.50;;
54699;SDS011;40599;53.132;6.090;2023-08-24T02:52:22;16.30;;;9.95;;
54699;SDS011;40599;53.132;6.090;2023-08-24T02:54:58;15.40;;;9.93;;
54699;SDS011;40599;53.132;6.090;2023-08-24T02:57:24;15.13;;;10.07;;
54699;SDS011;40599;53.132;6.090;2023-08-24T02:59:50;17.95;;;10.60;;
54699;SDS011;40599;53.132;6.090;2023-08-24T03:02:16;18.15;;;9.80;;
54699;SDS011;40599;53.132;6.090;2023-08-24T03:04:42;21.33;;;10.68;;
54699;SDS011;40599;53.132;6.090;2023-08-24T03:09:35;16.70;;;9.17;;
54699;SDS011;40599;53.132;6.090;2023-08-24T03:12:02;16.08;;;9.05;;
54699;SDS011;40599;53.132;6.090;2023-08-24T03:14:36;12.30;;;8.47;;
54699;SDS011;40599;53.132;6.090;2023-08-24T03:17:02;12.15;;;8.05;;
54699;SDS011;40599;53.132;6.090;2023-08-24T03:19:29;12.60;;;8.63;;
54699;SDS011;40599;53.132;6.090;2023-08-24T03:21:56;15.18;;;7.70;;
54699;SDS011;40599;53.132;6.090;2023-08-24T03:24:22;11.70;;;9.80;;
54699;SDS011;40599;53.132;6.090;2023-08-24T03:26:48;12.45;;;8.65;;
54699;SDS011;40599;53.132;6.090;2023-08-24T03:29:14;15.18;;;8.20;;
54699;SDS011;40599;53.132;6.090;2023-08-24T03:31:40;15.23;;;8.35;;
54699;SDS011;40599;53.132;6.090;2023-08-24T03:34:07;13.93;;;8.73;;
54699;SDS011;40599;53.132;6.090;2023-08-24T03:36:33;16.38;;;8.00;;
54699;SDS011;40599;53.132;6.090;2023-08-24T03:38:59;16.20;;;8.05;;
54699;SDS011;40599;53.132;6.090;2023-08-24T03:41:33;11.40;;;8.48;;
54699;SDS011;40599;53.132;6.090;2023-08-24T03:43:59;17.90;;;8.60;;
54699;SDS011;40599;53.132;6.090;2023-08-24T03:46:25;14.23;;;8.52;;
54699;SDS011;40599;53.132;6.090;2023-08-24T03:48:52;17.10;;;9.57;;
54699;SDS011;40599;53.132;6.090;2023-08-24T03:51:18;18.77;;;9.45;;
54699;SDS011;40599;53.132;6.090;2023-08-24T03:53:44;14.05;;;7.55;;
54699;SDS011;40599;53.132;6.090;2023-08-24T03:56:10;14.63;;;8.85;;
54699;SDS011;40599;53.132;6.090;2023-08-24T03:58:36;15.23;;;9.18;;
54699;SDS011;40599;53.132;6.090;2023-08-24T04:01:02;12.60;;;7.63;;
54699;SDS011;40599;53.132;6.090;2023-08-24T04:03:29;16.33;;;8.00;;
54699;SDS011;40599;53.132;6.090;2023-08-24T04:05:55;16.40;;;8.95;;
54699;SDS011;40599;53.132;6.090;2023-08-24T04:08:21;19.02;;;9.25;;
54699;SDS011;40599;53.132;6.090;2023-08-24T04:10:47;17.90;;;9.60;;
54699;SDS011;40599;53.132;6.090;2023-08-24T04:13:13;13.10;;;7.75;;
54699;SDS011;40599;53.132;6.090;2023-08-24T04:15:39;17.40;;;9.50;;
54699;SDS011;40599;53.132;6.090;2023-08-24T04:18:06;15.43;;;9.30;;
54699;SDS011;40599;53.132;6.090;2023-08-24T04:20:32;18.30;;;10.00;;
54699;SDS011;40599;53.132;6.090;2023-08-24T04:22:58;15.95;;;9.60;;
54699;SDS011;40599;53.132;6.090;2023-08-24T04:25:24;16.00;;;8.75;;
54699;SDS011;40599;53.132;6.090;2023-08-24T04:27:50;15.70;;;9.80;;
54699;SDS011;40599;53.132;6.090;2023-08-24T04:30:17;22.65;;;10.05;;
54699;SDS011;40599;53.132;6.090;2023-08-24T04:32:43;21.92;;;10.15;;
54699;SDS011;40599;53.132;6.090;2023-08-24T04:35:09;20.90;;;10.75;;
54699;SDS011;40599;53.132;6.090;2023-08-24T04:37:35;16.27;;;9.90;;
54699;SDS011;40599;53.132;6.090;2023-08-24T04:40:03;21.00;;;10.93;;
54699;SDS011;40599;53.132;6.090;2023-08-24T04:42:29;17.45;;;10.07;;
54699;SDS011;40599;53.132;6.090;2023-08-24T04:44:56;18.83;;;10.20;;
54699;SDS011;40599;53.132;6.090;2023-08-24T04:47:22;27.90;;;10.80;;
54699;SDS011;40599;53.132;6.090;2023-08-24T04:49:48;14.20;;;9.55;;
54699;SDS011;40599;53.132;6.090;2023-08-24T04:52:14;19.05;;;9.30;;
54699;SDS011;40599;53.132;6.090;2023-08-24T04:54:40;14.40;;;10.23;;
54699;SDS011;40599;53.132;6.090;2023-08-24T04:57:06;21.50;;;11.48;;
54699;SDS011;40599;53.132;6.090;2023-08-24T04:59:32;16.52;;;10.15;;
54699;SDS011;40599;53.132;6.090;2023-08-24T05:01:59;17.30;;;9.55;;
54699;SDS011;40599;53.132;6.090;2023-08-24T05:04:25;16.48;;;10.75;;
54699;SDS011;40599;53.132;6.090;2023-08-24T05:06:51;15.35;;;8.95;;
54699;SDS011;40599;53.132;6.090;2023-08-24T05:09:17;16.10;;;9.88;;
54699;SDS011;40599;53.132;6.090;2023-08-24T05:11:43;16.00;;;9.45;;
54699;SDS011;40599;53.132;6.090;2023-08-24T05:14:10;19.23;;;10.93;;
54699;SDS011;40599;53.132;6.090;2023-08-24T05:16:36;13.45;;;9.25;;
54699;SDS011;40599;53.132;6.090;2023-08-24T05:19:02;20.85;;;9.05;;
54699;SDS011;40599;53.132;6.090;2023-08-24T05:21:28;16.80;;;9.82;;
54699;SDS011;40599;53.132;6.090;2023-08-24T05:23:55;19.45;;;10.48;;
54699;SDS011;40599;53.132;6.090;2023-08-24T05:26:21;16.73;;;10.52;;
54699;SDS011;40599;53.132;6.090;2023-08-24T05:28:50;18.13;;;10.53;;
54699;SDS011;40599;53.132;6.090;2023-08-24T05:31:16;15.73;;;10.38;;
54699;SDS011;40599;53.132;6.090;2023-08-24T05:33:42;19.48;;;9.98;;
54699;SDS011;40599;53.132;6.090;2023-08-24T05:36:10;18.27;;;9.83;;
54699;SDS011;40599;53.132;6.090;2023-08-24T05:38:36;14.50;;;9.48;;
54699;SDS011;40599;53.132;6.090;2023-08-24T05:41:03;22.15;;;10.98;;
54699;SDS011;40599;53.132;6.090;2023-08-24T05:43:29;17.15;;;10.13;;
54699;SDS011;40599;53.132;6.090;2023-08-24T05:45:55;17.30;;;9.77;;
54699;SDS011;40599;53.132;6.090;2023-08-24T05:48:22;14.88;;;9.95;;
54699;SDS011;40599;53.132;6.090;2023-08-24T05:50:48;22.08;;;11.15;;
54699;SDS011;40599;53.132;6.090;2023-08-24T05:53:14;15.18;;;10.25;;
54699;SDS011;40599;53.132;6.090;2023-08-24T05:55:40;16.05;;;10.70;;
54699;SDS011;40599;53.132;6.090;2023-08-24T05:58:07;17.80;;;11.00;;
54699;SDS011;40599;53.132;6.090;2023-08-24T06:00:34;23.97;;;11.37;;
54699;SDS011;40599;53.132;6.090;2023-08-24T06:03:00;14.68;;;10.15;;
54699;SDS011;40599;53.132;6.090;2023-08-24T06:05:26;18.13;;;10.85;;
54699;SDS011;40599;53.132;6.090;2023-08-24T06:07:52;16.17;;;10.02;;
54699;SDS011;40599;53.132;6.090;2023-08-24T06:10:19;21.93;;;9.80;;
54699;SDS011;40599;53.132;6.090;2023-08-24T06:12:46;17.33;;;10.63;;
54699;SDS011;40599;53.132;6.090;2023-08-24T06:15:12;18.30;;;9.98;;
54699;SDS011;40599;53.132;6.090;2023-08-24T06:17:39;23.20;;;10.70;;
54699;SDS011;40599;53.132;6.090;2023-08-24T06:20:05;16.33;;;9.63;;
54699;SDS011;40599;53.132;6.090;2023-08-24T06:22:35;17.57;;;9.63;;
54699;SDS011;40599;53.132;6.090;2023-08-24T06:25:01;19.00;;;10.05;;
54699;SDS011;40599;53.132;6.090;2023-08-24T06:27:28;14.68;;;9.63;;
54699;SDS011;40599;53.132;6.090;2023-08-24T06:29:54;19.92;;;9.13;;
54699;SDS011;40599;53.132;6.090;2023-08-24T06:32:20;14.25;;;8.88;;
54699;SDS011;40599;53.132;6.090;2023-08-24T06:34:46;17.63;;;8.80;;
54699;SDS011;40599;53.132;6.090;2023-08-24T06:37:12;13.50;;;9.18;;
54699;SDS011;40599;53.132;6.090;2023-08-24T06:39:39;13.75;;;8.70;;
54699;SDS011;40599;53.132;6.090;2023-08-24T06:42:05;17.98;;;7.85;;
54699;SDS011;40599;53.132;6.090;2023-08-24T06:44:31;16.77;;;8.15;;
54699;SDS011;40599;53.132;6.090;2023-08-24T06:46:57;11.45;;;7.35;;
54699;SDS011;40599;53.132;6.090;2023-08-24T06:49:23;14.23;;;8.93;;
54699;SDS011;40599;53.132;6.090;2023-08-24T06:51:50;14.57;;;7.83;;
54699;SDS011;40599;53.132;6.090;2023-08-24T06:54:17;11.43;;;7.85;;
54699;SDS011;40599;53.132;6.090;2023-08-24T06:56:43;14.40;;;7.03;;
54699;SDS011;40599;53.132;6.090;2023-08-24T06:59:09;11.90;;;6.38;;
54699;SDS011;40599;53.132;6.090;2023-08-24T07:01:38;14.27;;;6.23;;
54699;SDS011;40599;53.132;6.090;2023-08-24T07:04:06;11.13;;;6.87;;
54699;SDS011;40599;53.132;6.090;2023-08-24T07:06:35;12.60;;;6.55;;
54699;SDS011;40599;53.132;6.090;2023-08-24T07:09:02;18.23;;;7.07;;
54699;SDS011;40599;53.132;6.090;2023-08-24T07:11:31;12.30;;;6.30;;
54699;SDS011;40599;53.132;6.090;2023-08-24T07:13:57;13.43;;;6.40;;
54699;SDS011;40599;53.132;6.090;2023-08-24T07:16:24;9.07;;;5.60;;
54699;SDS011;40599;53.132;6.090;2023-08-24T07:18:50;8.52;;;4.72;;
54699;SDS011;40599;53.132;6.090;2023-08-24T07:21:16;14.10;;;7.22;;
54699;SDS011;40599;53.132;6.090;2023-08-24T07:23:42;15.18;;;6.53;;
54699;SDS011;40599;53.132;6.090;2023-08-24T07:26:09;9.25;;;5.82;;
54699;SDS011;40599;53.132;6.090;2023-08-24T07:28:35;10.35;;;5.05;;
54699;SDS011;40599;53.132;6.090;2023-08-24T07:31:08;11.85;;;5.97;;
54699;SDS011;40599;53.132;6.090;2023-08-24T07:33:36;11.40;;;5.83;;
54699;SDS011;40599;53.132;6.090;2023-08-24T07:36:04;11.00;;;5.83;;
54699;SDS011;40599;53.132;6.090;2023-08-24T07:38:30;14.30;;;6.23;;
54699;SDS011;40599;53.132;6.090;2023-08-24T07:40:57;12.90;;;5.28;;
54699;SDS011;40599;53.132;6.090;2023-08-24T07:43:23;11.25;;;5.70;;
54699;SDS011;40599;53.132;6.090;2023-08-24T07:45:50;10.77;;;4.88;;
54699;SDS011;40599;53.132;6.090;2023-08-24T07:48:17;10.20;;;5.87;;
54699;SDS011;40599;53.132;6.090;2023-08-24T07:50:43;13.82;;;6.47;;
54699;SDS011;40599;53.132;6.090;2023-08-24T07:53:10;9.95;;;5.35;;
54699;SDS011;40599;53.132;6.090;2023-08-24T07:55:36;12.85;;;6.38;;
54699;SDS011;40599;53.132;6.090;2023-08-24T07:58:02;11.13;;;6.53;;
54699;SDS011;40599;53.132;6.090;2023-08-24T08:00:29;19.27;;;7.33;;
54699;SDS011;40599;53.132;6.090;2023-08-24T08:02:55;10.63;;;6.53;;
54699;SDS011;40599;53.132;6.090;2023-08-24T08:05:21;10.68;;;6.25;;
54699;SDS011;40599;53.132;6.090;2023-08-24T08:07:48;12.05;;;6.38;;
54699;SDS011;40599;53.132;6.090;2023-08-24T08:10:14;13.43;;;6.93;;
54699;SDS011;40599;53.132;6.090;2023-08-24T08:12:42;13.97;;;5.93;;
54699;SDS011;40599;53.132;6.090;2023-08-24T08:15:08;11.50;;;6.68;;
54699;SDS011;40599;53.132;6.090;2023-08-24T08:20:23;12.23;;;6.63;;
54699;SDS011;40599;53.132;6.090;2023-08-24T08:22:49;15.63;;;8.55;;
54699;SDS011;40599;53.132;6.090;2023-08-24T08:25:16;14.95;;;6.63;;
54699;SDS011;40599;53.132;6.090;2023-08-24T08:27:47;12.40;;;6.43;;
54699;SDS011;40599;53.132;6.090;2023-08-24T08:32:40;12.65;;;5.65;;
54699;SDS011;40599;53.132;6.090;2023-08-24T08:35:07;9.70;;;5.55;;
54699;SDS011;40599;53.132;6.090;2023-08-24T08:37:34;9.70;;;5.40;;
54699;SDS011;40599;53.132;6.090;2023-08-24T08:40:02;8.50;;;6.03;;
54699;SDS011;40599;53.132;6.090;2023-08-24T08:45:53;10.63;;;5.73;;
54699;SDS011;40599;53.132;6.090;2023-08-24T08:48:21;11.53;;;5.53;;
54699;SDS011;40599;53.132;6.090;2023-08-24T08:53:13;8.83;;;4.90;;
54699;SDS011;40599;53.132;6.090;2023-08-24T08:55:40;13.63;;;5.37;;
54699;SDS011;40599;53.132;6.090;2023-08-24T08:58:07;8.65;;;5.00;;
54699;SDS011;40599;53.132;6.090;2023-08-24T09:00:33;11.97;;;5.13;;
54699;SDS011;40599;53.132;6.090;2023-08-24T09:03:00;8.55;;;5.00;;
54699;SDS011;40599;53.132;6.090;2023-08-24T09:05:27;10.80;;;5.50;;
54699;SDS011;40599;53.132;6.090;2023-08-24T09:07:54;10.05;;;5.18;;
54699;SDS011;40599;53.132;6.090;2023-08-24T09:10:21;9.87;;;4.87;;
54699;SDS011;40599;53.132;6.090;2023-08-24T09:12:48;8.63;;;4.53;;
54699;SDS011;40599;53.132;6.090;2023-08-24T09:15:14;14.82;;;5.55;;
54699;SDS011;40599;53.132;6.090;2023-08-24T09:17:43;8.93;;;4.88;;
54699;SDS011;40599;53.132;6.090;2023-08-24T09:20:09;11.70;;;5.67;;
54699;SDS011;40599;53.132;6.090;2023-08-24T09:22:37;10.40;;;5.13;;
54699;SDS011;40599;53.132;6.090;2023-08-24T09:25:05;13.10;;;5.80;;
54699;SDS011;40599;53.132;6.090;2023-08-24T09:27:38;11.73;;;6.33;;
54699;SDS011;40599;53.132;6.090;2023-08-24T09:30:04;10.90;;;5.55;;
54699;SDS011;40599;53.132;6.090;2023-08-24T09:55:04;12.30;;;5.50;;
54699;SDS011;40599;53.132;6.090;2023-08-24T09:57:38;13.57;;;5.63;;
54699;SDS011;40599;53.132;6.090;2023-08-24T10:00:15;11.33;;;6.07;;
54699;SDS011;40599;53.132;6.090;2023-08-24T10:02:49;12.43;;;6.20;;
54699;SDS011;40599;53.132;6.090;2023-08-24T10:05:19;9.67;;;5.60;;
54699;SDS011;40599;53.132;6.090;2023-08-24T10:07:51;13.80;;;6.43;;
54699;SDS011;40599;53.132;6.090;2023-08-24T10:10:19;11.17;;;6.30;;
54699;SDS011;40599;53.132;6.090;2023-08-24T10:12:47;12.47;;;6.10;;
54699;SDS011;40599;53.132;6.090;2023-08-24T10:15:13;10.53;;;6.10;;
54699;SDS011;40599;53.132;6.090;2023-08-24T10:17:40;10.90;;;6.77;;
54699;SDS011;40599;53.132;6.090;2023-08-24T10:20:07;12.32;;;6.65;;
54699;SDS011;40599;53.132;6.090;2023-08-24T10:22:34;16.03;;;7.17;;
54699;SDS011;40599;53.132;6.090;2023-08-24T10:25:01;12.83;;;7.43;;
54699;SDS011;40599;53.132;6.090;2023-08-24T10:27:28;16.63;;;6.93;;
54699;SDS011;40599;53.132;6.090;2023-08-24T10:29:55;12.90;;;7.60;;
54699;SDS011;40599;53.132;6.090;2023-08-24T10:32:23;11.33;;;6.77;;
54699;SDS011;40599;53.132;6.090;2023-08-24T10:34:50;18.73;;;7.53;;
54699;SDS011;40599;53.132;6.090;2023-08-24T10:39:46;16.73;;;7.80;;
54699;SDS011;40599;53.132;6.090;2023-08-24T10:42:12;12.03;;;7.07;;
54699;SDS011;40599;53.132;6.090;2023-08-24T10:44:40;14.17;;;7.63;;
54699;SDS011;40599;53.132;6.090;2023-08-24T10:47:07;16.10;;;8.80;;
54699;SDS011;40599;53.132;6.090;2023-08-24T10:49:33;15.83;;;8.03;;
54699;SDS011;40599;53.132;6.090;2023-08-24T10:54:48;16.10;;;8.57;;
54699;SDS011;40599;53.132;6.090;2023-08-24T10:57:18;19.97;;;8.70;;
54699;SDS011;40599;53.132;6.090;2023-08-24T10:59:57;14.73;;;8.90;;
54699;SDS011;40599;53.132;6.090;2023-08-24T11:02:24;15.02;;;8.82;;
54699;SDS011;40599;53.132;6.090;2023-08-24T11:07:17;13.53;;;7.57;;
54699;SDS011;40599;53.132;6.090;2023-08-24T11:09:46;19.23;;;9.02;;
54699;SDS011;40599;53.132;6.090;2023-08-24T11:12:13;16.20;;;8.80;;
54699;SDS011;40599;53.132;6.090;2023-08-24T11:14:49;15.82;;;8.93;;
54699;SDS011;40599;53.132;6.090;2023-08-24T11:17:24;20.20;;;9.57;;
54699;SDS011;40599;53.132;6.090;2023-08-24T11:19:51;17.57;;;8.50;;
54699;SDS011;40599;53.132;6.090;2023-08-24T11:22:17;16.50;;;10.07;;
54699;SDS011;40599;53.132;6.090;2023-08-24T11:24:44;13.93;;;9.70;;
54699;SDS011;40599;53.132;6.090;2023-08-24T11:29:37;18.73;;;10.00;;
54699;SDS011;40599;53.132;6.090;2023-08-24T11:32:03;13.70;;;9.10;;
54699;SDS011;40599;53.132;6.090;2023-08-24T11:34:30;15.68;;;9.05;;
54699;SDS011;40599;53.132;6.090;2023-08-24T11:36:56;17.73;;;9.43;;
54699;SDS011;40599;53.132;6.090;2023-08-24T11:39:23;15.68;;;9.57;;
54699;SDS011;40599;53.132;6.090;2023-08-24T11:42:00;19.47;;;10.33;;
54699;SDS011;40599;53.132;6.090;2023-08-24T11:44:27;16.95;;;10.40;;
54699;SDS011;40599;53.132;6.090;2023-08-24T11:46:57;17.63;;;11.47;;
54699;SDS011;40599;53.132;6.090;2023-08-24T11:49:24;17.70;;;11.07;;
54699;SDS011;40599;53.132;6.090;2023-08-24T11:51:50;16.05;;;10.85;;
54699;SDS011;40599;53.132;6.090;2023-08-24T11:54:20;23.67;;;11.33;;
54699;SDS011;40599;53.132;6.090;2023-08-24T11:56:46;15.90;;;10.73;;
54699;SDS011;40599;53.132;6.090;2023-08-24T11:59:13;17.00;;;11.43;;
54699;SDS011;40599;53.132;6.090;2023-08-24T12:01:40;20.63;;;10.70;;
54699;SDS011;40599;53.132;6.090;2023-08-24T12:04:07;18.90;;;10.53;;
54699;SDS011;40599;53.132;6.090;2023-08-24T12:06:33;19.50;;;10.65;;
54699;SDS011;40599;53.132;6.090;2023-08-24T12:08:59;20.63;;;10.98;;
54699;SDS011;40599;53.132;6.090;2023-08-24T12:11:28;16.77;;;11.00;;
54699;SDS011;40599;53.132;6.090;2023-08-24T12:13:54;18.17;;;12.20;;
54699;SDS011;40599;53.132;6.090;2023-08-24T12:18:57;16.57;;;12.00;;
54699;SDS011;40599;53.132;6.090;2023-08-24T12:21:29;20.93;;;12.10;;
54699;SDS011;40599;53.132;6.090;2023-08-24T12:23:59;17.47;;;11.30;;
54699;SDS011;40599;53.132;6.090;2023-08-24T12:26:26;16.43;;;11.63;;
54699;SDS011;40599;53.132;6.090;2023-08-24T12:28:53;22.23;;;12.50;;
54699;SDS011;40599;53.132;6.090;2023-08-24T12:31:20;17.13;;;12.57;;
54699;SDS011;40599;53.132;6.090;2023-08-24T12:33:57;16.23;;;11.30;;
54699;SDS011;40599;53.132;6.090;2023-08-24T12:36:24;21.43;;;12.97;;
54699;SDS011;40599;53.132;6.090;2023-08-24T12:38:50;17.58;;;12.32;;
54699;SDS011;40599;53.132;6.090;2023-08-24T12:41:16;17.80;;;13.18;;
54699;SDS011;40599;53.132;6.090;2023-08-24T12:43:42;23.55;;;14.10;;
54699;SDS011;40599;53.132;6.090;2023-08-24T12:46:10;20.45;;;11.90;;
54699;SDS011;40599;53.132;6.090;2023-08-24T12:48:37;18.33;;;12.13;;
54699;SDS011;40599;53.132;6.090;2023-08-24T12:51:03;21.55;;;12.77;;
54699;SDS011;40599;53.132;6.090;2023-08-24T12:53:29;18.60;;;14.57;;
54699;SDS011;40599;53.132;6.090;2023-08-24T12:55:55;19.73;;;13.50;;
54699;SDS011;40599;53.132;6.090;2023-08-24T12:58:21;19.23;;;14.95;;
54699;SDS011;40599;53.132;6.090;2023-08-24T13:00:48;26.00;;;15.40;;
54699;SDS011;40599;53.132;6.090;2023-08-24T13:03:14;25.15;;;15.30;;
54699;SDS011;40599;53.132;6.090;2023-08-24T13:05:41;18.48;;;14.77;;
54699;SDS011;40599;53.132;6.090;2023-08-24T13:08:07;18.33;;;14.27;;
54699;SDS011;40599;53.132;6.090;2023-08-24T13:10:33;23.77;;;13.57;;
54699;SDS011;40599;53.132;6.090;2023-08-24T13:12:59;21.67;;;15.43;;
54699;SDS011;40599;53.132;6.090;2023-08-24T13:15:25;20.08;;;14.23;;
54699;SDS011;40599;53.132;6.090;2023-08-24T13:21:14;20.40;;;14.70;;
54699;SDS011;40599;53.132;6.090;2023-08-24T13:23:40;19.60;;;15.40;;
54699;SDS011;40599;53.132;6.090;2023-08-24T13:26:12;23.42;;;15.55;;
54699;SDS011;40599;53.132;6.090;2023-08-24T13:28:43;17.63;;;15.30;;
54699;SDS011;40599;53.132;6.090;2023-08-24T13:31:09;18.98;;;15.70;;
54699;SDS011;40599;53.132;6.090;2023-08-24T13:33:35;17.40;;;13.93;;
54699;SDS011;40599;53.132;6.090;2023-08-24T13:36:01;22.13;;;15.32;;
54699;SDS011;40599;53.132;6.090;2023-08-24T13:38:28;24.77;;;16.23;;
54699;SDS011;40599;53.132;6.090;2023-08-24T13:40:54;19.08;;;15.23;;
54699;SDS011;40599;53.132;6.090;2023-08-24T13:43:20;19.38;;;15.35;;
54699;SDS011;40599;53.132;6.090;2023-08-24T13:45:46;18.15;;;14.82;;
54699;SDS011;40599;53.132;6.090;2023-08-24T13:48:12;16.38;;;13.35;;
54699;SDS011;40599;53.132;6.090;2023-08-24T13:50:40;20.50;;;16.15;;
54699;SDS011;40599;53.132;6.090;2023-08-24T13:53:07;19.63;;;16.47;;
54699;SDS011;40599;53.132;6.090;2023-08-24T13:55:33;21.13;;;16.63;;
54699;SDS011;40599;53.132;6.090;2023-08-24T13:57:59;20.75;;;15.20;;
54699;SDS011;40599;53.132;6.090;2023-08-24T14:00:25;21.25;;;15.98;;
54699;SDS011;40599;53.132;6.090;2023-08-24T14:02:51;21.33;;;15.02;;
54699;SDS011;40599;53.132;6.090;2023-08-24T14:05:18;24.45;;;16.92;;
54699;SDS011;40599;53.132;6.090;2023-08-24T14:07:44;21.38;;;16.35;;
54699;SDS011;40599;53.132;6.090;2023-08-24T14:10:10;21.75;;;16.80;;
54699;SDS011;40599;53.132;6.090;2023-08-24T14:12:37;27.17;;;17.43;;
54699;SDS011;40599;53.132;6.090;2023-08-24T14:15:03;19.58;;;16.17;;
54699;SDS011;40599;53.132;6.090;2023-08-24T14:17:29;24.93;;;16.27;;
54699;SDS011;40599;53.132;6.090;2023-08-24T14:19:56;29.10;;;17.20;;
54699;SDS011;40599;53.132;6.090;2023-08-24T14:22:22;23.70;;;17.73;;
54699;SDS011;40599;53.132;6.090;2023-08-24T14:24:48;22.88;;;15.73;;
54699;SDS011;40599;53.132;6.090;2023-08-24T14:27:14;21.55;;;16.35;;
54699;SDS011;40599;53.132;6.090;2023-08-24T14:29:40;22.35;;;16.20;;
54699;SDS011;40599;53.132;6.090;2023-08-24T14:32:06;24.15;;;17.08;;
54699;SDS011;40599;53.132;6.090;2023-08-24T14:34:33;21.83;;;17.48;;
54699;SDS011;40599;53.132;6.090;2023-08-24T14:36:59;21.42;;;17.65;;
54699;SDS011;40599;53.132;6.090;2023-08-24T14:39:25;26.08;;;18.73;;
54699;SDS011;40599;53.132;6.090;2023-08-24T14:41:51;24.23;;;19.92;;
54699;SDS011;40599;53.132;6.090;2023-08-24T14:44:17;21.13;;;18.05;;
54699;SDS011;40599;53.132;6.090;2023-08-24T14:46:44;24.67;;;17.42;;
54699;SDS011;40599;53.132;6.090;2023-08-24T14:51:36;24.33;;;17.37;;
54699;SDS011;40599;53.132;6.090;2023-08-24T14:54:02;23.30;;;18.77;;
54699;SDS011;40599;53.132;6.090;2023-08-24T14:56:28;25.02;;;19.52;;
54699;SDS011;40599;53.132;6.090;2023-08-24T14:58:55;26.25;;;18.30;;
54699;SDS011;40599;53.132;6.090;2023-08-24T15:01:21;24.02;;;20.10;;
54699;SDS011;40599;53.132;6.090;2023-08-24T15:03:47;25.92;;;20.20;;
54699;SDS011;40599;53.132;6.090;2023-08-24T15:06:13;23.80;;;20.05;;
54699;SDS011;40599;53.132;6.090;2023-08-24T15:08:39;22.60;;;20.27;;
54699;SDS011;40599;53.132;6.090;2023-08-24T15:13:32;28.50;;;20.70;;
54699;SDS011;40599;53.132;6.090;2023-08-24T15:15:58;26.52;;;21.38;;
54699;SDS011;40599;53.132;6.090;2023-08-24T15:18:25;26.45;;;19.58;;
54699;SDS011;40599;53.132;6.090;2023-08-24T15:20:51;28.87;;;22.13;;
54699;SDS011;40599;53.132;6.090;2023-08-24T15:23:25;26.40;;;21.45;;
54699;SDS011;40599;53.132;6.090;2023-08-24T15:25:54;28.13;;;21.43;;
54699;SDS011;40599;53.132;6.090;2023-08-24T15:28:21;29.47;;;23.03;;
54699;SDS011;40599;53.132;6.090;2023-08-24T15:33:14;24.80;;;20.00;;
54699;SDS011;40599;53.132;6.090;2023-08-24T15:35:40;25.80;;;20.53;;
54699;SDS011;40599;53.132;6.090;2023-08-24T15:38:07;23.50;;;19.60;;
54699;SDS011;40599;53.132;6.090;2023-08-24T15:40:34;26.10;;;20.37;;
54699;SDS011;40599;53.132;6.090;2023-08-24T15:43:01;23.07;;;20.03;;